createdAt,value
2023-07-21T00:00:49.097Z,2.60
2023-07-21T00:03:29.176Z,2.25
2023-07-21T00:06:08.918Z,2.20
2023-07-21T00:08:45.072Z,2.40
2023-07-21T00:11:25.326Z,2.40
2023-07-21T00:14:01.786Z,2.27
2023-07-21T00:16:41.327Z,2.20
2023-07-21T00:19:34.841Z,2.33
2023-07-21T00:22:14.079Z,2.10
2023-07-21T00:24:49.030Z,2.00
2023-07-21T00:27:24.470Z,2.33
2023-07-21T00:30:00.662Z,2.22
2023-07-21T00:32:38.454Z,2.08
2023-07-21T00:35:17.524Z,2.45
2023-07-21T00:38:02.604Z,2.40
2023-07-21T00:40:50.057Z,2.33
2023-07-21T00:43:26.968Z,2.10
2023-07-21T00:46:07.127Z,1.97
2023-07-21T00:48:49.480Z,2.35
2023-07-21T00:51:32.740Z,2.20
2023-07-21T00:54:14.866Z,2.60
2023-07-21T00:56:57.582Z,2.30
2023-07-21T00:59:36.941Z,2.33
2023-07-21T01:02:31.134Z,2.90
2023-07-21T01:05:14.673Z,2.30
2023-07-21T01:07:50.729Z,2.50
2023-07-21T01:10:32.853Z,2.10
2023-07-21T01:13:11.618Z,2.37
2023-07-21T01:15:52.969Z,2.63
2023-07-21T01:18:31.377Z,2.72
2023-07-21T01:21:08.668Z,2.80
2023-07-21T01:23:50.367Z,2.40
2023-07-21T01:26:31.385Z,2.70
2023-07-21T01:29:12.138Z,2.92
2023-07-21T01:31:45.922Z,2.85
2023-07-21T01:34:22.643Z,2.77
2023-07-21T01:36:59.997Z,3.08
2023-07-21T01:39:35.969Z,2.70
2023-07-21T01:42:17.122Z,3.30
2023-07-21T01:44:53.730Z,3.33
2023-07-21T01:47:37.246Z,2.95
2023-07-21T01:50:14.886Z,3.40
2023-07-21T01:52:49.847Z,3.07
2023-07-21T01:55:31.333Z,3.75
2023-07-21T01:58:11.542Z,3.20
2023-07-21T02:00:51.807Z,3.58
2023-07-21T02:03:28.700Z,3.60
2023-07-21T02:06:20.361Z,3.55
2023-07-21T02:09:03.779Z,3.92
2023-07-21T02:11:41.739Z,3.77
2023-07-21T02:14:40.303Z,3.40
2023-07-21T02:17:18.100Z,3.50
2023-07-21T02:19:54.565Z,4.07
2023-07-21T02:22:29.952Z,3.90
2023-07-21T02:25:09.817Z,4.10
2023-07-21T02:27:44.983Z,3.72
2023-07-21T02:30:24.740Z,4.00
2023-07-21T02:33:05.927Z,4.05
2023-07-21T02:35:39.554Z,3.67
2023-07-21T02:38:15.549Z,3.95
2023-07-21T02:40:53.187Z,3.60
2023-07-21T02:43:31.314Z,2.57
2023-07-21T02:46:08.192Z,3.30
2023-07-21T02:48:47.227Z,3.45
2023-07-21T02:51:24.034Z,3.65
2023-07-21T02:54:03.998Z,3.40
2023-07-21T02:56:40.578Z,3.17
2023-07-21T02:59:28.595Z,3.83
2023-07-21T03:02:09.902Z,4.32
2023-07-21T03:05:08.000Z,3.27
2023-07-21T03:07:42.327Z,3.97
2023-07-21T03:10:23.319Z,3.30
2023-07-21T03:13:00.909Z,3.23
2023-07-21T03:15:42.742Z,3.10
2023-07-21T03:18:24.523Z,3.13
2023-07-21T03:21:22.542Z,3.75
2023-07-21T03:23:59.820Z,3.50
2023-07-21T03:26:37.845Z,4.05
2023-07-21T03:29:16.908Z,3.67
2023-07-21T03:31:57.601Z,4.03
2023-07-21T03:34:38.278Z,4.32
2023-07-21T03:37:19.754Z,3.85
2023-07-21T03:39:56.158Z,3.17
2023-07-21T03:42:35.978Z,3.85
2023-07-21T03:45:15.552Z,3.78
2023-07-21T03:47:53.089Z,3.67
2023-07-21T03:50:33.105Z,3.72
2023-07-21T03:53:06.643Z,3.75
2023-07-21T03:55:45.014Z,3.22
2023-07-21T03:58:25.792Z,3.27
2023-07-21T04:01:11.889Z,3.20
2023-07-21T04:03:45.949Z,2.90
2023-07-21T04:06:26.326Z,3.58
2023-07-21T04:09:03.860Z,3.13
2023-07-21T04:11:43.549Z,3.60
2023-07-21T04:14:25.887Z,3.60
2023-07-21T04:17:03.448Z,3.67
2023-07-21T04:19:46.530Z,4.00
2023-07-21T04:22:28.049Z,3.35
2023-07-21T04:25:06.304Z,3.63
2023-07-21T04:27:47.228Z,2.83
2023-07-21T04:30:26.427Z,3.35
2023-07-21T04:33:09.545Z,3.15
2023-07-21T04:35:49.708Z,3.20
2023-07-21T04:38:58.454Z,3.27
2023-07-21T04:41:35.708Z,2.93
2023-07-21T04:44:12.318Z,2.55
2023-07-21T04:46:50.823Z,3.33
2023-07-21T04:49:34.534Z,2.90
2023-07-21T04:52:08.976Z,2.90
2023-07-21T04:54:52.274Z,3.65
2023-07-21T04:57:28.109Z,3.30
2023-07-21T05:00:11.656Z,2.60
2023-07-21T05:02:50.753Z,2.75
2023-07-21T05:05:28.849Z,2.70
2023-07-21T05:08:06.475Z,2.53
2023-07-21T05:10:48.430Z,2.50
2023-07-21T05:13:30.742Z,2.20
2023-07-21T05:16:25.112Z,2.63
2023-07-21T05:19:24.225Z,2.20
2023-07-21T05:22:21.102Z,1.70
2023-07-21T05:24:59.494Z,1.33
2023-07-21T05:27:39.241Z,1.70
2023-07-21T05:30:20.968Z,1.80
2023-07-21T05:33:04.711Z,1.17
2023-07-21T05:35:45.823Z,1.30
2023-07-21T05:38:30.095Z,1.30
2023-07-21T05:41:09.206Z,1.33
2023-07-21T05:43:51.550Z,1.30
2023-07-21T05:46:28.305Z,1.45
2023-07-21T05:49:12.319Z,2.10
2023-07-21T05:51:52.073Z,1.27
2023-07-21T05:54:48.184Z,1.30
2023-07-21T05:57:23.121Z,1.00
2023-07-21T06:00:03.919Z,1.40
2023-07-21T06:02:50.756Z,1.20
2023-07-21T06:05:27.029Z,1.30
2023-07-21T06:08:26.989Z,1.20
2023-07-21T06:11:32.914Z,1.10
2023-07-21T06:14:35.568Z,1.35
2023-07-21T06:17:27.304Z,1.33
2023-07-21T06:20:02.890Z,1.05
2023-07-21T06:22:46.001Z,1.27
2023-07-21T06:25:23.572Z,1.55
2023-07-21T06:28:16.468Z,1.05
2023-07-21T06:30:57.114Z,1.50
2023-07-21T06:34:01.289Z,1.37
2023-07-21T06:36:48.665Z,1.38
2023-07-21T06:39:54.872Z,1.25
2023-07-21T06:42:59.061Z,1.10
2023-07-21T06:46:05.696Z,1.05
2023-07-21T06:49:20.354Z,1.00
2023-07-21T06:52:14.419Z,1.20
2023-07-21T06:54:50.331Z,1.25
2023-07-21T06:57:26.988Z,0.93
2023-07-21T07:00:09.467Z,1.10
2023-07-21T07:02:51.025Z,1.13
2023-07-21T07:05:30.716Z,0.70
2023-07-21T07:08:22.748Z,0.70
2023-07-21T07:11:07.761Z,1.55
2023-07-21T07:13:52.046Z,0.63
2023-07-21T07:19:11.160Z,0.80
2023-07-21T07:22:02.719Z,0.70
2023-07-21T07:24:48.113Z,0.70
2023-07-21T07:27:23.447Z,0.60
2023-07-21T07:29:59.637Z,0.95
2023-07-21T07:32:46.292Z,0.85
2023-07-21T07:35:30.960Z,0.80
2023-07-21T07:38:20.375Z,0.60
2023-07-21T07:41:12.656Z,0.93
2023-07-21T07:43:47.183Z,0.80
2023-07-21T07:46:36.930Z,0.70
2023-07-21T07:49:26.434Z,0.60
2023-07-21T07:52:10.866Z,0.40
2023-07-21T07:54:53.378Z,0.30
2023-07-21T07:57:48.491Z,0.55
2023-07-21T08:00:31.291Z,0.52
2023-07-21T08:06:43.456Z,0.50
2023-07-21T08:09:36.137Z,0.50
2023-07-21T08:30:56.551Z,0.50
2023-07-21T08:36:48.698Z,0.60
2023-07-21T08:42:25.137Z,0.60
2023-07-21T08:45:13.666Z,0.40
2023-07-21T08:51:23.360Z,0.40
2023-07-21T08:54:16.465Z,0.60
2023-07-21T08:59:57.653Z,0.50
2023-07-21T09:02:32.505Z,0.30
2023-07-21T09:05:24.441Z,0.30
2023-07-21T09:08:11.764Z,0.40
2023-07-21T09:10:59.748Z,0.40
2023-07-21T09:14:01.824Z,0.30
2023-07-21T09:16:40.146Z,0.70
2023-07-21T09:19:30.453Z,0.40
2023-07-21T09:22:33.394Z,0.40
2023-07-21T09:25:37.813Z,0.57
2023-07-21T09:28:28.464Z,0.50
2023-07-21T09:31:18.401Z,0.50
2023-07-21T09:34:09.127Z,0.45
2023-07-21T09:36:50.252Z,0.70
2023-07-21T09:39:38.127Z,0.35
2023-07-21T09:42:24.864Z,0.47
2023-07-21T09:47:57.157Z,0.30
2023-07-21T09:50:42.368Z,0.40
2023-07-21T09:53:34.506Z,0.45
2023-07-21T09:56:39.585Z,0.38
2023-07-21T10:02:23.843Z,0.60
2023-07-21T10:07:57.087Z,0.50
2023-07-21T10:10:50.708Z,0.40
2023-07-21T10:13:38.146Z,0.40
2023-07-21T10:16:48.651Z,0.40
2023-07-21T10:19:30.487Z,0.33
2023-07-21T10:22:15.678Z,0.90
2023-07-21T10:25:01.482Z,0.73
2023-07-21T10:30:34.191Z,0.40
2023-07-21T10:33:30.498Z,0.47
2023-07-21T10:36:18.477Z,0.50
2023-07-21T10:38:54.771Z,0.30
2023-07-21T10:41:31.370Z,0.40
2023-07-21T10:44:15.434Z,0.40
2023-07-21T10:46:51.846Z,0.50
2023-07-21T10:49:31.753Z,0.50
2023-07-21T10:52:13.681Z,0.40
2023-07-21T10:57:39.047Z,0.60
2023-07-21T11:00:21.684Z,0.30
2023-07-21T11:03:10.537Z,0.70
2023-07-21T11:05:57.996Z,0.60
2023-07-21T11:08:32.846Z,0.38
2023-07-21T11:11:32.726Z,0.35
2023-07-21T11:14:09.372Z,0.40
2023-07-21T11:16:48.698Z,0.60
2023-07-21T11:19:27.760Z,0.40
2023-07-21T11:25:22.224Z,0.43
2023-07-21T11:30:35.562Z,0.50
2023-07-21T11:33:26.860Z,0.30
2023-07-21T11:36:15.486Z,0.40
2023-07-21T11:39:16.366Z,0.30
2023-07-21T11:42:01.145Z,0.80
2023-07-21T11:44:46.089Z,0.50
2023-07-21T11:47:33.475Z,0.40
2023-07-21T11:50:25.387Z,0.50
2023-07-21T11:53:45.418Z,0.30
2023-07-21T12:02:20.468Z,0.68
2023-07-21T12:05:07.751Z,0.40
2023-07-21T12:07:48.308Z,0.50
2023-07-21T12:10:31.605Z,0.50
2023-07-21T12:13:14.967Z,0.40
2023-07-21T12:15:55.715Z,0.40
2023-07-21T12:18:46.757Z,0.30
2023-07-21T12:21:41.237Z,0.50
2023-07-21T12:24:31.188Z,0.40
2023-07-21T12:27:14.867Z,0.50
2023-07-21T12:29:51.660Z,0.50
2023-07-21T12:32:44.602Z,0.40
2023-07-21T12:35:29.682Z,0.45
2023-07-21T12:38:09.821Z,0.43
2023-07-21T12:40:48.960Z,0.55
2023-07-21T12:43:28.722Z,0.40
2023-07-21T12:49:09.339Z,0.57
2023-07-21T12:51:48.813Z,0.50
2023-07-21T12:54:40.654Z,0.50
2023-07-21T12:57:19.140Z,0.50
2023-07-21T13:00:02.223Z,0.80
2023-07-21T13:02:45.324Z,0.50
2023-07-21T13:05:32.519Z,0.50
2023-07-21T13:08:15.756Z,0.40
2023-07-21T13:11:11.532Z,0.60
2023-07-21T13:19:51.868Z,0.68
2023-07-21T13:28:41.470Z,0.80
2023-07-21T13:31:22.141Z,0.50
2023-07-21T13:36:54.555Z,0.50
2023-07-21T13:39:33.428Z,0.50
2023-07-21T13:42:28.884Z,0.60
2023-07-21T13:47:55.417Z,0.50
2023-07-21T13:50:37.923Z,0.47
2023-07-21T13:53:16.084Z,0.50
2023-07-21T13:56:05.170Z,0.70
2023-07-21T13:58:50.759Z,0.40
2023-07-21T14:04:03.600Z,0.60
2023-07-21T14:06:56.812Z,0.70
2023-07-21T14:09:50.090Z,0.50
2023-07-21T14:12:33.012Z,0.70
2023-07-21T14:18:14.524Z,0.60
2023-07-21T14:21:00.759Z,0.40
2023-07-21T14:23:37.297Z,0.73
2023-07-21T14:26:23.842Z,0.60
2023-07-21T14:29:02.636Z,0.50
2023-07-21T14:31:43.000Z,0.70
2023-07-21T14:40:18.989Z,1.20
2023-07-21T14:46:13.246Z,0.60
2023-07-21T14:48:52.196Z,0.50
2023-07-21T14:51:34.274Z,0.60
2023-07-21T14:54:12.619Z,0.55
2023-07-21T14:59:58.442Z,0.50
2023-07-21T15:02:42.095Z,0.70
2023-07-21T15:20:21.015Z,1.37
2023-07-21T15:23:03.961Z,0.90
2023-07-21T15:25:40.181Z,0.65
2023-07-21T15:28:09.940Z,0.70
2023-07-21T15:30:51.282Z,0.80
2023-07-21T15:33:36.884Z,0.70
2023-07-21T15:36:18.463Z,0.60
2023-07-21T15:38:52.909Z,0.60
2023-07-21T15:41:26.514Z,0.60
2023-07-21T15:44:05.449Z,0.60
2023-07-21T15:46:40.075Z,0.85
2023-07-21T15:49:20.282Z,0.70
2023-07-21T15:52:03.253Z,0.60
2023-07-21T15:54:43.732Z,0.85
2023-07-21T15:57:16.480Z,0.70
2023-07-21T15:59:52.593Z,0.60
2023-07-21T16:02:29.918Z,0.60
2023-07-21T16:05:12.898Z,0.70
2023-07-21T16:07:48.467Z,1.30
2023-07-21T16:13:04.056Z,1.05
2023-07-21T16:15:36.804Z,0.70
2023-07-21T16:18:12.432Z,0.50
2023-07-21T16:21:00.258Z,1.00
2023-07-21T16:23:36.726Z,0.60
2023-07-21T16:26:19.878Z,0.85
2023-07-21T16:28:59.287Z,0.80
2023-07-21T16:31:33.989Z,1.40
2023-07-21T16:34:10.036Z,1.20
2023-07-21T16:36:46.431Z,1.77
2023-07-21T16:39:22.362Z,1.45
2023-07-21T16:41:57.944Z,1.00
2023-07-21T16:44:36.440Z,1.70
2023-07-21T16:47:13.086Z,1.75
2023-07-21T16:49:51.750Z,1.67
2023-07-21T16:52:30.051Z,1.70
2023-07-21T16:55:05.531Z,2.20
2023-07-21T16:57:44.982Z,2.40
2023-07-21T17:00:27.676Z,1.63
2023-07-21T17:03:04.333Z,1.60
2023-07-21T17:05:40.824Z,1.50
2023-07-21T17:08:18.903Z,1.48
2023-07-21T17:10:54.838Z,1.95
2023-07-21T17:13:31.634Z,1.50
2023-07-21T17:16:11.934Z,1.88
2023-07-21T17:18:51.630Z,1.50
2023-07-21T17:21:28.809Z,2.35
2023-07-21T17:24:13.672Z,1.33
2023-07-21T17:26:50.836Z,1.10
2023-07-21T17:29:26.893Z,1.02
2023-07-21T17:32:08.923Z,0.90
2023-07-21T17:34:44.021Z,0.85
2023-07-21T17:37:19.148Z,1.10
2023-07-21T17:40:00.677Z,1.10
2023-07-21T17:42:41.332Z,1.17
2023-07-21T17:45:21.102Z,0.90
2023-07-21T17:47:56.550Z,1.42
2023-07-21T17:50:35.497Z,1.80
2023-07-21T17:53:10.734Z,1.10
2023-07-21T17:55:54.333Z,1.03
2023-07-21T17:58:30.640Z,1.10
2023-07-21T18:01:17.192Z,1.92
2023-07-21T18:03:55.955Z,1.10
2023-07-21T18:06:34.063Z,1.05
2023-07-21T18:09:09.747Z,1.00
2023-07-21T18:11:47.810Z,1.00
2023-07-21T18:14:23.665Z,1.00
2023-07-21T18:17:00.883Z,1.58
2023-07-21T18:19:41.164Z,1.10
2023-07-21T18:22:16.188Z,1.30
2023-07-21T18:24:53.614Z,1.00
2023-07-21T18:27:33.823Z,0.90
2023-07-21T18:30:16.081Z,0.80
2023-07-21T18:32:53.512Z,0.80
2023-07-21T18:35:29.525Z,1.02
2023-07-21T18:38:04.915Z,1.05
2023-07-21T18:40:40.513Z,1.05
2023-07-21T18:43:26.041Z,1.00
2023-07-21T18:46:02.351Z,1.05
2023-07-21T18:48:47.065Z,1.50
2023-07-21T18:51:28.224Z,1.80
2023-07-21T18:54:05.498Z,1.75
2023-07-21T18:56:40.223Z,1.50
2023-07-21T18:59:18.486Z,1.65
2023-07-21T19:01:50.918Z,1.75
2023-07-21T19:04:24.646Z,2.20
2023-07-21T19:06:58.035Z,1.77
2023-07-21T19:09:35.555Z,1.50
2023-07-21T19:12:09.772Z,1.33
2023-07-21T19:14:48.321Z,1.73
2023-07-21T19:17:22.176Z,2.03
2023-07-21T19:20:00.360Z,2.55
2023-07-21T19:22:33.874Z,1.70
2023-07-21T19:25:08.991Z,1.97
2023-07-21T19:27:45.194Z,2.28
2023-07-21T19:30:30.004Z,1.60
2023-07-21T19:33:06.223Z,1.85
2023-07-21T19:35:42.377Z,1.70
2023-07-21T19:38:17.232Z,2.00
2023-07-21T19:40:52.985Z,1.80
2023-07-21T19:43:28.546Z,1.73
2023-07-21T19:46:00.612Z,1.60
2023-07-21T19:48:36.959Z,1.80
2023-07-21T19:51:18.834Z,1.80
2023-07-21T19:53:53.298Z,1.55
2023-07-21T19:56:28.574Z,1.88
2023-07-21T19:59:02.008Z,1.70
2023-07-21T20:01:37.593Z,1.65
2023-07-21T20:04:15.253Z,1.67
2023-07-21T20:06:49.519Z,1.77
2023-07-21T20:09:26.125Z,2.10
2023-07-21T20:12:14.259Z,2.15
2023-07-21T20:14:59.374Z,2.20
2023-07-21T20:18:06.138Z,2.03
2023-07-21T20:20:43.945Z,2.50
2023-07-21T20:23:44.484Z,2.30
2023-07-21T20:26:27.244Z,2.20
2023-07-21T20:29:07.938Z,2.65
2023-07-21T20:31:48.752Z,2.40
2023-07-21T20:34:26.090Z,2.33
2023-07-21T20:37:01.526Z,2.00
2023-07-21T20:39:38.425Z,2.35
2023-07-21T20:42:15.863Z,2.90
2023-07-21T20:44:53.131Z,2.58
2023-07-21T20:47:28.818Z,2.92
2023-07-21T20:52:46.286Z,2.80
2023-07-21T20:55:27.851Z,3.08
2023-07-21T20:58:13.071Z,2.40
2023-07-21T21:00:58.875Z,3.05
2023-07-21T21:03:37.900Z,2.87
2023-07-21T21:06:16.725Z,2.45
2023-07-21T21:08:52.545Z,2.70
2023-07-21T21:14:12.543Z,2.35
2023-07-21T21:16:50.832Z,2.95
2023-07-21T21:19:31.724Z,2.92
2023-07-21T21:22:11.144Z,3.40
2023-07-21T21:24:49.800Z,2.65
2023-07-21T21:27:31.476Z,3.50
2023-07-21T21:30:08.372Z,3.83
2023-07-21T21:32:45.599Z,4.13
2023-07-21T21:35:24.945Z,3.28
2023-07-21T21:38:03.413Z,3.28
2023-07-21T21:40:42.769Z,3.20
2023-07-21T21:43:31.770Z,2.85
2023-07-21T21:46:11.103Z,3.08
2023-07-21T21:48:52.617Z,3.40
2023-07-21T21:51:34.719Z,3.60
2023-07-21T21:54:11.768Z,3.15
2023-07-21T21:56:51.510Z,3.30
2023-07-21T21:59:32.465Z,2.58
2023-07-21T22:02:09.785Z,3.13
2023-07-21T22:04:48.984Z,3.20
2023-07-21T22:07:24.290Z,3.10
2023-07-21T22:10:13.586Z,3.60
2023-07-21T22:12:48.835Z,3.80
2023-07-21T22:15:30.419Z,3.60
2023-07-21T22:18:07.790Z,3.40
2023-07-21T22:20:44.969Z,3.10
2023-07-21T22:23:19.506Z,4.00
2023-07-21T22:25:59.302Z,4.30
2023-07-21T22:28:31.878Z,4.43
2023-07-21T22:31:18.268Z,4.38
2023-07-21T22:33:56.886Z,4.50
2023-07-21T22:36:33.185Z,4.60
2023-07-21T22:39:10.945Z,4.00
2023-07-21T22:41:55.457Z,4.20
2023-07-21T22:44:34.727Z,3.58
2023-07-21T22:47:14.850Z,4.40
2023-07-21T22:50:00.259Z,3.15
2023-07-21T22:52:43.038Z,3.80
2023-07-21T22:55:20.189Z,3.70
2023-07-21T22:57:56.335Z,3.80
2023-07-21T23:00:35.062Z,3.65
2023-07-21T23:03:10.183Z,3.70
2023-07-21T23:05:52.557Z,3.30
2023-07-21T23:08:33.124Z,3.40
2023-07-21T23:11:09.032Z,3.20
2023-07-21T23:13:44.378Z,3.30
2023-07-21T23:16:22.138Z,3.13
2023-07-21T23:18:58.054Z,3.30
2023-07-21T23:21:44.045Z,3.50
2023-07-21T23:24:29.480Z,3.30
2023-07-21T23:27:09.507Z,2.90
2023-07-21T23:29:42.890Z,2.90
2023-07-21T23:32:19.402Z,2.50
2023-07-21T23:34:57.391Z,2.95
2023-07-21T23:37:41.061Z,2.20
2023-07-21T23:40:19.746Z,2.72
2023-07-21T23:42:58.026Z,2.40
2023-07-21T23:45:34.341Z,3.00
2023-07-21T23:48:14.570Z,2.25
2023-07-21T23:50:47.388Z,2.40
2023-07-21T23:53:26.672Z,2.00
2023-07-21T23:56:07.449Z,2.40
2023-07-21T23:58:45.240Z,2.30
